Bozeman, MT

5:36 PM MDT on October 22, 2014 (GMT -0600)
Bon-Ton | Change Station
CLOSE
Current Station
Personal Weather Station
Location: Bozeman, MT
Elevation: 4884 ft
Nearby Weather Stations

Elev 4884 ft 45.67 °N, 111.04 °W | Updated 3 seconds ago

Clear
Clear
58.8 °F
Feels Like 58.8 °F
N
0.0
Wind Variable Wind from NNE
Gusts 2.0 mph

Today
High -- | Low -- °F
--% Chance of Precip.
Yesterday
High -- | Low -- °F
Precip. -- in
7:50 AM 6:26 PM
Waning Crescent, 1% visible
Pressure 30.03 in
Visibility 10.0 miles
Clouds Clear
Dew Point 32 °F
Humidity 37%
Rainfall 0.00 in
Snow Depth 1 in , 1 in
UV 0.0 out of 12
Pollen .40 out of 12
Air Quality Not available.
Flu Activity No Activity
METAR KBZN 222256Z 26008KT 10SM CLR 14/M02 A3002 RMK AO2 SLP169 T01391017

More Conditions Fewer Conditions

Pressure 30.03 in
Visibility 10.0 miles
Clouds Clear
Dew Point 32 °F
Humidity 37%
Rainfall 0.00 in
Snow Depth 1 in , 1 in
UV 0.0 out of 12
Pollen .40 out of 12
Air Quality Not available.
Flu Activity No Activity
METAR KBZN 222256Z 26008KT 10SM CLR 14/M02 A3002 RMK AO2 SLP169 T01391017

More Conditions Fewer Conditions

10-Day Weather Forecast

Almanac

Astronomy

Oct. 22, 2014 Rise Set
Actual Time 7:50 AM MDT 6:26 PM MDT
Civil Twilight 7:19 AM MDT 6:56 PM MDT
Nautical Twilight 6:45 AM MDT 7:31 PM MDT
Astronomical Twilight 6:10 AM MDT 8:05 PM MDT
Moon 6:31 AM MDT 5:57 PM MDT
Length of Visible Light 11h 36m
Length of Day
10h 36m
Tomorrow will be 3m 1s shorter.
Waning Crescent, 1% of the Moon is Illuminated
Today
Waning Crescent
Oct 23
New
Oct 30
First Quarter
Nov 6
Full
Nov 14
Last Quarter

Today's Extremes

State Highs State Lows

Community

WunderPhotos

Upload Photos

1,764,080 photos uploaded!

WunderBlogs® & News

Nearby

Snow Depth

Station Depth Elevation
Sacajawea 1 in 6550 ft
Shower Falls 1 in 8100 ft
South Fork Shields 0 in 8100 ft
Porcupine 0 in 6500 ft
Albro Lake 2 in 8300 ft

Earthquake Activity

City Distance Mag. Time & Date
No recent earthquake activity has been reported nearby.
Minimum magnitude displayed is 2.5.

Coastal Water Temperatures

Place Temperature
No Stations Reporting

Nearby Weather Stations